Time;durP1;ratioP1;P1;durP2;ratioP2;P2;SDS_P1;SDS_P2;PMS_P1;PMS_P2;Temp;Humidity;BMP_temperature;BMP_pressure;BME280_temperature;BME280_humidity;BME280_pressure;Samples;Min_cycle;Max_cycle;Signal;HPM_P1;HPM_P2
2022/06/29 00:01:55;;;;;;;8.70;2.40;;;17.30;99.90;;;;;;5014767;28;20046;-70
2022/06/29 00:04:24;;;;;;;6.80;1.95;;;17.10;99.90;;;;;;5014822;28;20036;-70
2022/06/29 00:06:49;;;;;;;7.00;2.60;;;17.00;99.90;;;;;;5014447;28;20105;-69
2022/06/29 00:09:15;;;;;;;5.53;2.03;;;17.00;99.90;;;;;;5014911;28;20112;-69
2022/06/29 00:11:40;;;;;;;9.63;2.65;;;16.90;99.90;;;;;;4997377;28;20470;-69
2022/06/29 00:14:06;;;;;;;5.13;1.75;;;17.00;99.90;;;;;;5007738;28;20045;-69
2022/06/29 00:16:31;;;;;;;4.70;1.85;;;17.20;99.90;;;;;;5013948;28;20026;-69
2022/06/29 00:18:57;;;;;;;6.30;2.15;;;17.10;99.90;;;;;;5014736;28;20026;-69
2022/06/29 00:21:22;;;;;;;7.18;2.63;;;17.10;99.90;;;;;;5014620;28;20025;-69
2022/06/29 00:23:48;;;;;;;10.80;2.72;;;17.00;99.90;;;;;;5014876;28;20034;-69
2022/06/29 00:26:13;;;;;;;5.30;2.33;;;16.90;99.90;;;;;;5014392;28;20478;-69
2022/06/29 00:28:39;;;;;;;8.20;2.17;;;16.70;99.90;;;;;;5013357;28;20030;-69
2022/06/29 00:31:04;;;;;;;19.75;2.85;;;16.60;99.90;;;;;;5014436;28;20121;-70
2022/06/29 00:33:30;;;;;;;7.80;3.08;;;16.50;99.90;;;;;;5014234;28;20030;-70
2022/06/29 00:35:55;;;;;;;7.55;2.25;;;16.40;99.90;;;;;;5014244;28;20022;-70
2022/06/29 00:38:21;;;;;;;7.30;2.78;;;16.40;99.90;;;;;;5013113;28;20029;-70
2022/06/29 00:40:46;;;;;;;5.93;2.70;;;16.20;99.90;;;;;;5014230;28;20482;-70
2022/06/29 00:43:12;;;;;;;6.15;1.98;;;16.20;99.90;;;;;;5014304;28;20022;-69
2022/06/29 00:45:37;;;;;;;9.10;2.42;;;16.20;99.90;;;;;;5014037;28;20030;-70
2022/06/29 00:48:03;;;;;;;4.38;2.20;;;16.20;99.90;;;;;;5013892;28;20018;-71
2022/06/29 00:50:30;;;;;;;6.47;2.92;;;16.10;99.90;;;;;;5013938;28;20072;-70
2022/06/29 00:52:57;;;;;;;6.65;2.47;;;16.00;99.90;;;;;;5014285;28;20033;-71
2022/06/29 00:55:22;;;;;;;11.15;3.65;;;16.00;99.90;;;;;;4996371;28;20046;-70
2022/06/29 00:57:48;;;;;;;8.95;2.38;;;15.80;99.90;;;;;;4996940;28;20040;-69
2022/06/29 01:00:17;;;;;;;7.72;2.42;;;15.80;99.90;;;;;;5013599;28;20034;-70
2022/06/29 01:02:43;;;;;;;6.38;2.80;;;15.90;99.90;;;;;;5012765;28;20030;-70
2022/06/29 01:05:09;;;;;;;9.43;2.83;;;16.00;99.90;;;;;;4995911;28;20028;-69
2022/06/29 01:07:35;;;;;;;7.13;2.70;;;15.90;99.90;;;;;;5013984;28;20047;-70
2022/06/29 01:10:00;;;;;;;7.43;2.65;;;15.90;99.90;;;;;;4996286;28;20033;-69
2022/06/29 01:12:27;;;;;;;12.55;2.88;;;15.80;99.90;;;;;;5013841;28;20096;-68
2022/06/29 01:14:53;;;;;;;8.82;3.90;;;15.90;99.90;;;;;;5013743;28;20409;-68
2022/06/29 01:17:19;;;;;;;9.45;3.53;;;15.80;99.90;;;;;;5013574;28;20520;-69
2022/06/29 01:19:45;;;;;;;15.43;4.47;;;15.90;99.90;;;;;;5013472;28;20501;-69
2022/06/29 01:22:11;;;;;;;10.55;3.97;;;15.80;99.90;;;;;;5013658;28;20061;-69
2022/06/29 01:24:36;;;;;;;8.65;3.75;;;15.70;99.90;;;;;;5013599;28;20029;-69
2022/06/29 01:27:02;;;;;;;6.72;2.60;;;15.70;99.90;;;;;;5013098;28;20034;-69
2022/06/29 01:29:29;;;;;;;4.95;2.83;;;15.50;99.90;;;;;;4995726;28;20033;-69
2022/06/29 01:31:55;;;;;;;6.05;2.97;;;15.50;99.90;;;;;;5013096;28;20470;-69
2022/06/29 01:34:21;;;;;;;6.78;2.70;;;15.60;99.90;;;;;;5013333;28;20529;-69
2022/06/29 01:36:46;;;;;;;4.57;2.15;;;15.50;99.90;;;;;;5012700;28;20026;-68
2022/06/29 01:39:12;;;;;;;4.82;2.60;;;15.40;99.90;;;;;;5013038;28;20033;-69
2022/06/29 01:41:37;;;;;;;17.27;5.03;;;15.60;99.90;;;;;;5012746;28;20017;-69
2022/06/29 01:44:03;;;;;;;10.18;3.33;;;15.50;99.90;;;;;;5013173;28;20018;-69
2022/06/29 01:46:28;;;;;;;6.72;2.33;;;15.50;99.90;;;;;;5013140;28;20095;-69
2022/06/29 01:48:54;;;;;;;9.45;3.40;;;15.50;99.90;;;;;;5013174;28;20038;-69
2022/06/29 01:51:19;;;;;;;11.05;3.30;;;15.30;99.90;;;;;;5012744;28;20030;-69
2022/06/29 01:53:45;;;;;;;7.07;3.33;;;15.30;99.90;;;;;;5012639;28;20026;-69
2022/06/29 01:56:10;;;;;;;8.95;3.75;;;15.10;99.90;;;;;;5012764;28;20075;-69
2022/06/29 01:58:36;;;;;;;11.70;3.95;;;15.10;99.90;;;;;;5013071;28;20030;-69
2022/06/29 02:01:01;;;;;;;11.52;3.63;;;15.00;99.90;;;;;;5013075;28;20116;-69
2022/06/29 02:03:27;;;;;;;12.70;3.92;;;15.00;99.90;;;;;;5012705;28;20188;-68
2022/06/29 02:05:52;;;;;;;5.18;3.15;;;14.90;99.90;;;;;;5012417;28;20496;-68
2022/06/29 02:08:18;;;;;;;9.43;3.35;;;14.90;99.90;;;;;;5012528;28;20040;-70
2022/06/29 02:10:43;;;;;;;3.58;2.65;;;14.80;99.90;;;;;;5012778;28;20033;-70
2022/06/29 02:13:09;;;;;;;6.90;3.47;;;14.70;99.90;;;;;;5012762;28;20018;-70
2022/06/29 02:15:34;;;;;;;8.05;3.65;;;14.70;99.90;;;;;;5012675;28;20030;-71
2022/06/29 02:18:00;;;;;;;12.20;4.15;;;14.70;99.90;;;;;;5013170;28;20018;-71
2022/06/29 02:20:25;;;;;;;6.53;3.17;;;14.60;99.90;;;;;;5012952;28;20021;-71
2022/06/29 02:22:51;;;;;;;10.20;4.22;;;14.60;99.90;;;;;;5012222;28;20030;-70
2022/06/29 02:25:16;;;;;;;4.45;3.15;;;14.60;99.90;;;;;;5012613;28;20448;-69
2022/06/29 02:27:44;;;;;;;14.13;5.13;;;14.60;99.90;;;;;;5012382;28;20033;-68
2022/06/29 02:30:10;;;;;;;14.20;5.13;;;14.50;99.90;;;;;;5012696;28;20048;-69
2022/06/29 02:35:20;;;;;;;18.35;5.75;;;14.50;99.90;;;;;;5012454;28;20029;-68
2022/06/29 02:37:46;;;;;;;16.48;6.03;;;14.40;99.90;;;;;;5011688;28;20018;-68
2022/06/29 02:40:11;;;;;;;16.35;5.88;;;14.50;99.90;;;;;;5012577;28;20018;-69
2022/06/29 02:42:37;;;;;;;12.05;4.80;;;14.50;99.90;;;;;;5012462;28;20018;-69
2022/06/29 02:45:03;;;;;;;10.90;5.13;;;14.50;99.90;;;;;;5012270;28;20514;-69
2022/06/29 02:47:28;;;;;;;8.55;4.35;;;14.60;99.90;;;;;;5012531;28;20100;-70
2022/06/29 02:49:54;;;;;;;14.35;4.95;;;14.50;99.90;;;;;;5015238;28;20025;-70
2022/06/29 02:52:19;;;;;;;12.27;5.35;;;14.60;99.90;;;;;;5016646;28;20018;-70
2022/06/29 02:54:45;;;;;;;15.98;5.28;;;14.60;99.90;;;;;;5015877;28;20089;-70
2022/06/29 02:57:10;;;;;;;16.38;5.30;;;14.60;99.90;;;;;;5016272;28;20359;-70
2022/06/29 02:59:36;;;;;;;19.52;5.97;;;14.50;99.90;;;;;;5015993;28;20037;-69
2022/06/29 03:02:01;;;;;;;14.20;5.78;;;14.50;99.90;;;;;;5016085;28;20041;-70
2022/06/29 03:04:27;;;;;;;20.73;6.55;;;14.60;99.90;;;;;;5016318;28;20037;-69
2022/06/29 03:06:52;;;;;;;11.80;5.05;;;14.50;99.90;;;;;;5015961;28;20030;-70
2022/06/29 03:09:18;;;;;;;9.40;4.75;;;14.50;99.90;;;;;;5016284;28;20041;-70
2022/06/29 03:11:43;;;;;;;9.77;4.07;;;14.50;99.90;;;;;;5015932;28;21812;-69
2022/06/29 03:14:09;;;;;;;15.13;5.13;;;14.40;99.90;;;;;;5016259;28;20021;-70
2022/06/29 03:16:34;;;;;;;25.45;6.78;;;14.40;99.90;;;;;;5015911;28;20021;-69
2022/06/29 03:19:00;;;;;;;9.23;3.72;;;14.40;99.90;;;;;;5016202;28;20037;-68
2022/06/29 03:21:25;;;;;;;13.85;5.65;;;14.30;99.90;;;;;;5015699;28;20044;-68
2022/06/29 03:23:51;;;;;;;15.20;5.72;;;14.40;99.90;;;;;;5016059;28;20029;-69
2022/06/29 03:26:17;;;;;;;15.10;5.03;;;14.40;99.90;;;;;;5015671;28;20394;-69
2022/06/29 03:28:43;;;;;;;16.00;5.53;;;14.50;99.90;;;;;;5015785;28;20061;-69
2022/06/29 03:31:08;;;;;;;19.13;5.32;;;14.50;99.90;;;;;;5015455;28;20116;-69
2022/06/29 03:33:34;;;;;;;23.48;6.97;;;14.50;99.90;;;;;;5015703;28;20530;-69
2022/06/29 03:36:00;;;;;;;37.40;8.93;;;14.60;99.90;;;;;;5015125;28;20108;-69
2022/06/29 03:38:25;;;;;;;19.15;6.47;;;14.50;99.90;;;;;;5015449;28;20032;-69
2022/06/29 03:40:51;;;;;;;30.80;8.75;;;14.50;99.90;;;;;;5015169;28;20056;-68
2022/06/29 03:43:17;;;;;;;21.88;6.32;;;14.60;99.90;;;;;;5015618;28;20065;-69
2022/06/29 03:45:42;;;;;;;18.67;6.57;;;14.60;99.90;;;;;;5015453;28;20026;-69
2022/06/29 03:48:08;;;;;;;22.10;6.78;;;14.60;99.90;;;;;;5015264;28;20184;-69
2022/06/29 03:50:33;;;;;;;22.45;8.10;;;14.70;99.90;;;;;;5014896;28;20516;-69
2022/06/29 03:52:59;;;;;;;13.18;4.80;;;14.80;99.90;;;;;;5015000;28;20490;-69
2022/06/29 03:55:25;;;;;;;13.70;5.43;;;14.80;99.90;;;;;;5015237;28;20042;-69
2022/06/29 03:57:50;;;;;;;14.55;5.20;;;14.80;99.90;;;;;;5014843;28;20471;-69
2022/06/29 04:00:16;;;;;;;20.02;6.78;;;14.90;99.90;;;;;;5014453;28;20026;-69
2022/06/29 04:02:42;;;;;;;20.40;5.85;;;14.80;99.90;;;;;;5015090;28;20041;-69
2022/06/29 04:05:08;;;;;;;25.77;7.55;;;14.80;99.90;;;;;;5014858;28;20036;-69
2022/06/29 04:07:33;;;;;;;25.10;7.13;;;14.80;99.90;;;;;;5014957;28;20040;-69
2022/06/29 04:10:02;;;;;;;14.18;5.45;;;14.70;99.90;;;;;;4999932;28;20026;-69
2022/06/29 04:12:28;;;;;;;25.35;8.85;;;14.70;99.90;;;;;;5014849;28;20033;-68
2022/06/29 04:14:54;;;;;;;23.38;6.75;;;14.80;99.90;;;;;;5014708;28;20102;-69
2022/06/29 04:17:19;;;;;;;18.15;6.50;;;14.80;99.90;;;;;;5010456;28;20482;-68
2022/06/29 04:19:45;;;;;;;21.20;5.75;;;14.80;99.90;;;;;;5007274;28;20030;-69
2022/06/29 04:22:10;;;;;;;32.15;7.50;;;14.80;99.90;;;;;;5014834;28;20109;-69
2022/06/29 04:24:36;;;;;;;14.65;5.40;;;14.80;99.90;;;;;;5014476;28;20021;-70
2022/06/29 04:27:02;;;;;;;13.50;5.15;;;14.90;99.90;;;;;;5014328;28;20117;-70
2022/06/29 04:29:27;;;;;;;33.78;9.70;;;15.50;99.90;;;;;;5014554;28;20376;-70
2022/06/29 04:31:53;;;;;;;53.50;13.07;;;15.80;99.90;;;;;;5005889;28;20101;-70
2022/06/29 04:34:18;;;;;;;111.22;20.50;;;15.50;99.90;;;;;;5014831;28;20114;-70
2022/06/29 04:36:44;;;;;;;76.18;18.27;;;15.30;99.90;;;;;;5013773;28;20079;-71
2022/06/29 04:39:09;;;;;;;65.55;16.98;;;15.20;99.90;;;;;;5014776;28;20080;-70
2022/06/29 04:41:35;;;;;;;80.57;19.08;;;15.40;99.90;;;;;;5014627;28;20394;-70
2022/06/29 04:44:00;;;;;;;49.47;10.98;;;15.20;99.90;;;;;;5001311;28;20042;-69
2022/06/29 04:46:38;;;;;;;42.92;12.48;;;15.20;99.90;;;;;;4995244;28;20034;-70
2022/06/29 04:49:06;;;;;;;17.52;6.47;;;15.30;99.90;;;;;;4961305;28;20441;-69
2022/06/29 04:51:32;;;;;;;40.15;10.30;;;15.40;99.90;;;;;;4994756;28;20030;-70
2022/06/29 04:53:58;;;;;;;34.80;9.27;;;15.50;99.90;;;;;;5011212;28;20045;-70
2022/06/29 04:56:25;;;;;;;28.80;9.10;;;15.60;99.90;;;;;;5013468;28;20037;-69
2022/06/29 04:58:53;;;;;;;33.67;9.25;;;15.80;99.90;;;;;;5013780;28;20028;-69
2022/06/29 05:01:18;;;;;;;29.92;9.32;;;16.10;99.90;;;;;;5012451;28;20513;-69
2022/06/29 05:03:44;;;;;;;36.40;9.13;;;16.30;99.90;;;;;;5011911;28;20034;-69
2022/06/29 05:06:10;;;;;;;19.00;6.60;;;16.90;99.90;;;;;;5013873;28;20069;-70
2022/06/29 05:08:35;;;;;;;58.22;14.00;;;17.70;99.90;;;;;;5014163;28;20026;-70
2022/06/29 05:11:01;;;;;;;46.10;12.98;;;18.20;99.90;;;;;;5013661;28;20049;-70
2022/06/29 05:13:29;;;;;;;21.85;7.47;;;18.30;99.90;;;;;;5012852;28;20030;-71
2022/06/29 05:15:54;;;;;;;40.45;11.02;;;18.20;99.90;;;;;;5012674;28;20025;-70
2022/06/29 05:18:20;;;;;;;21.80;6.60;;;18.10;99.90;;;;;;5012869;28;20022;-69
2022/06/29 05:20:46;;;;;;;12.60;5.82;;;17.80;99.90;;;;;;5013735;28;20025;-70
2022/06/29 05:23:11;;;;;;;23.95;7.53;;;17.70;99.90;;;;;;5013863;28;20061;-70
2022/06/29 05:25:37;;;;;;;33.00;9.10;;;17.90;99.90;;;;;;5013598;28;20087;-70
2022/06/29 05:28:03;;;;;;;38.25;9.10;;;17.80;99.90;;;;;;5013341;28;20479;-71
2022/06/29 05:30:28;;;;;;;18.08;6.00;;;18.00;99.90;;;;;;5013356;28;20444;-71
2022/06/29 05:32:54;;;;;;;11.73;4.75;;;18.20;99.90;;;;;;5013582;28;20371;-71
2022/06/29 05:35:19;;;;;;;13.15;5.00;;;18.30;99.90;;;;;;5013114;28;20037;-71
2022/06/29 05:37:45;;;;;;;9.70;4.13;;;18.60;99.90;;;;;;5008960;28;20032;-70
2022/06/29 05:40:11;;;;;;;8.80;3.88;;;18.90;99.90;;;;;;5012979;28;20037;-70
2022/06/29 05:42:36;;;;;;;9.27;3.83;;;19.50;98.80;;;;;;5013299;28;20075;-70
2022/06/29 05:45:02;;;;;;;7.55;4.20;;;19.60;98.90;;;;;;5013334;28;20030;-70
2022/06/29 05:47:28;;;;;;;14.75;5.68;;;19.80;98.40;;;;;;5012882;28;20034;-69
2022/06/29 05:49:55;;;;;;;10.90;5.05;;;19.50;98.60;;;;;;5013114;28;20049;-70
2022/06/29 05:52:21;;;;;;;16.13;5.55;;;19.30;99.20;;;;;;5013323;28;20044;-70
2022/06/29 05:54:46;;;;;;;12.82;4.32;;;19.10;99.70;;;;;;5012759;28;20125;-69
2022/06/29 05:57:12;;;;;;;13.75;4.65;;;19.50;99.00;;;;;;5013446;28;20018;-70
2022/06/29 05:59:37;;;;;;;13.70;4.22;;;19.40;98.60;;;;;;5013139;28;20096;-72
2022/06/29 06:02:03;;;;;;;7.93;3.88;;;19.70;97.50;;;;;;5012591;28;20157;-70
2022/06/29 06:05:19;;;;;;;13.05;4.25;;;20.20;97.40;;;;;;5012757;28;20535;-70
2022/06/29 06:07:44;;;;;;;19.50;5.55;;;19.70;97.60;;;;;;4955987;28;20570;-70
2022/06/29 06:10:10;;;;;;;11.15;4.35;;;19.40;98.80;;;;;;4971826;28;20034;-70
2022/06/29 06:12:35;;;;;;;4.70;2.33;;;19.40;98.30;;;;;;4994282;28;20080;-70
2022/06/29 06:15:01;;;;;;;12.10;4.30;;;19.40;98.40;;;;;;5012901;28;20030;-70
2022/06/29 06:17:27;;;;;;;9.98;3.95;;;19.50;98.80;;;;;;5013120;28;20100;-70
2022/06/29 06:19:58;;;;;;;20.77;5.93;;;19.70;99.60;;;;;;5012883;28;20022;-71
2022/06/29 06:22:23;;;;;;;29.33;7.20;;;19.80;99.60;;;;;;4996524;28;20037;-71
2022/06/29 06:24:49;;;;;;;14.20;4.35;;;19.70;99.90;;;;;;5007750;28;20026;-76
2022/06/29 06:27:14;;;;;;;8.80;3.97;;;20.00;99.20;;;;;;4976138;28;20490;-71
2022/06/29 06:29:40;;;;;;;9.60;4.15;;;20.30;97.60;;;;;;4993251;28;20515;-71
2022/06/29 06:32:06;;;;;;;10.55;3.30;;;20.60;96.50;;;;;;4994134;28;20026;-71
2022/06/29 06:34:34;;;;;;;8.05;3.47;;;20.60;96.50;;;;;;5012898;28;20505;-71
2022/06/29 06:37:01;;;;;;;8.50;3.67;;;20.90;95.40;;;;;;5012795;28;20029;-70
2022/06/29 06:39:27;;;;;;;6.93;2.67;;;20.70;94.50;;;;;;5012868;28;20506;-71
2022/06/29 06:41:52;;;;;;;6.50;2.92;;;21.10;94.50;;;;;;5012687;28;20037;-71
2022/06/29 06:44:41;;;;;;;5.43;2.63;;;21.70;92.20;;;;;;5012621;28;20482;-70
2022/06/29 06:47:06;;;;;;;7.63;2.90;;;21.90;90.00;;;;;;5006277;28;20492;-71
2022/06/29 06:49:32;;;;;;;6.05;2.50;;;22.30;87.70;;;;;;5012704;28;20026;-71
2022/06/29 06:51:57;;;;;;;6.97;2.63;;;22.20;89.90;;;;;;4997513;28;20111;-71
2022/06/29 06:54:23;;;;;;;11.05;3.13;;;22.30;86.60;;;;;;4992678;28;20477;-71
2022/06/29 06:56:48;;;;;;;12.23;2.95;;;22.10;88.30;;;;;;5002531;28;20025;-71
2022/06/29 06:59:14;;;;;;;11.35;2.80;;;21.70;90.80;;;;;;5008165;28;20026;-71
2022/06/29 07:01:40;;;;;;;9.10;2.45;;;21.40;90.90;;;;;;4996218;28;20028;-71
2022/06/29 07:04:05;;;;;;;16.52;4.35;;;21.50;90.50;;;;;;4992942;28;20029;-71
2022/06/29 07:06:31;;;;;;;6.43;3.15;;;21.40;92.20;;;;;;4992938;28;20018;-70
2022/06/29 07:08:57;;;;;;;5.38;2.83;;;21.40;91.10;;;;;;5001995;28;20101;-70
2022/06/29 07:11:23;;;;;;;7.00;3.97;;;21.80;87.40;;;;;;5012527;28;20037;-70
2022/06/29 07:13:48;;;;;;;8.98;4.03;;;21.60;83.70;;;;;;5011579;28;20417;-71
2022/06/29 07:16:14;;;;;;;24.98;9.23;;;21.60;89.50;;;;;;5012581;28;20591;-70
2022/06/29 07:18:43;;;;;;;11.30;3.85;;;21.40;90.10;;;;;;5012683;28;20033;-70
2022/06/29 07:21:09;;;;;;;9.13;3.38;;;21.50;86.50;;;;;;5012606;28;20053;-70
2022/06/29 07:23:35;;;;;;;9.27;3.33;;;21.50;82.90;;;;;;5011473;28;20045;-70
2022/06/29 07:26:02;;;;;;;9.30;2.30;;;21.70;82.10;;;;;;5012337;28;20026;-70
2022/06/29 07:29:00;;;;;;;7.55;2.95;;;21.70;79.20;;;;;;5012518;28;20060;-69
2022/06/29 07:31:28;;;;;;;4.93;2.95;;;22.00;82.50;;;;;;4968236;28;20046;-69
2022/06/29 07:33:53;;;;;;;9.65;3.65;;;22.20;80.30;;;;;;5011508;28;20072;-70
2022/06/29 07:36:19;;;;;;;9.38;3.10;;;22.70;80.00;;;;;;5012761;28;20018;-69
2022/06/29 07:38:44;;;;;;;8.65;2.60;;;22.30;79.00;;;;;;4996163;28;20022;-69
2022/06/29 07:41:10;;;;;;;5.47;2.55;;;22.80;77.10;;;;;;4996050;28;20356;-69
2022/06/29 07:43:35;;;;;;;13.48;3.35;;;22.00;77.10;;;;;;4996158;28;20033;-70
2022/06/29 07:46:02;;;;;;;15.35;3.22;;;21.80;82.30;;;;;;4996075;28;20034;-70
2022/06/29 07:48:27;;;;;;;4.85;2.90;;;21.80;86.00;;;;;;4996133;28;20102;-70
2022/06/29 07:50:59;;;;;;;11.07;3.30;;;21.70;88.20;;;;;;4998174;28;20538;-70
2022/06/29 07:53:24;;;;;;;5.82;2.58;;;22.10;85.60;;;;;;4995847;28;20081;-70
2022/06/29 07:55:50;;;;;;;23.55;5.85;;;21.90;80.00;;;;;;4994728;28;20046;-70
2022/06/29 07:58:15;;;;;;;20.80;5.05;;;21.80;85.90;;;;;;4995075;28;20049;-70
2022/06/29 08:00:41;;;;;;;26.75;7.55;;;21.70;86.10;;;;;;4995788;28;20534;-70
2022/06/29 08:03:07;;;;;;;12.93;4.85;;;21.70;89.90;;;;;;4995753;28;20045;-70
2022/06/29 08:05:33;;;;;;;14.88;5.05;;;22.40;91.10;;;;;;4995730;28;20030;-70
2022/06/29 08:07:59;;;;;;;28.30;9.02;;;22.30;83.50;;;;;;4995625;28;20454;-70
2022/06/29 08:10:24;;;;;;;29.52;6.53;;;22.00;91.70;;;;;;4995665;28;20026;-71
2022/06/29 08:12:50;;;;;;;7.53;2.88;;;22.10;89.50;;;;;;4995506;28;20073;-72
2022/06/29 08:15:17;;;;;;;13.63;3.58;;;22.30;82.60;;;;;;4978334;28;20098;-71
2022/06/29 08:17:43;;;;;;;7.40;3.53;;;22.10;85.30;;;;;;4995465;28;20023;-70
2022/06/29 08:20:09;;;;;;;7.85;3.22;;;22.40;82.60;;;;;;4995300;28;20031;-71
2022/06/29 08:22:34;;;;;;;8.63;2.92;;;22.50;82.00;;;;;;4995371;28;20032;-70
2022/06/29 08:25:00;;;;;;;8.77;3.22;;;23.00;79.10;;;;;;4995246;28;20501;-70
2022/06/29 08:27:26;;;;;;;7.13;3.15;;;22.50;81.80;;;;;;5001953;28;20455;-70
2022/06/29 08:29:51;;;;;;;7.07;2.50;;;22.60;81.60;;;;;;5014707;28;20145;-70
2022/06/29 08:32:17;;;;;;;3.85;2.60;;;22.50;77.90;;;;;;5014733;28;20021;-70
2022/06/29 08:34:42;;;;;;;10.13;3.40;;;22.20;81.60;;;;;;5014790;28;20022;-70
2022/06/29 08:37:08;;;;;;;5.72;2.35;;;22.50;82.30;;;;;;5014644;28;20040;-70
2022/06/29 08:39:33;;;;;;;8.27;2.70;;;22.50;76.20;;;;;;5014788;28;20098;-70
2022/06/29 08:42:04;;;;;;;5.40;2.30;;;22.50;80.60;;;;;;5014533;28;20072;-70
2022/06/29 08:44:36;;;;;;;5.22;2.60;;;22.30;80.10;;;;;;5014687;28;20022;-70
2022/06/29 08:47:05;;;;;;;5.78;2.50;;;22.20;80.40;;;;;;5014184;28;20029;-70
2022/06/29 08:49:31;;;;;;;9.63;2.72;;;22.30;80.40;;;;;;5014280;28;20029;-69
2022/06/29 08:51:57;;;;;;;6.93;3.40;;;22.40;77.90;;;;;;5014312;28;20018;-69
2022/06/29 08:54:24;;;;;;;4.68;2.33;;;22.50;81.20;;;;;;4993607;28;20181;-69
2022/06/29 08:56:49;;;;;;;10.57;3.03;;;22.60;76.10;;;;;;4993731;28;20026;-69
2022/06/29 08:59:15;;;;;;;4.70;2.53;;;22.90;78.10;;;;;;4993535;28;20637;-69
2022/06/29 09:01:41;;;;;;;6.00;2.45;;;22.30;79.80;;;;;;4993509;28;20038;-69
2022/06/29 09:04:07;;;;;;;4.15;2.40;;;22.40;79.80;;;;;;4993293;28;20033;-69
2022/06/29 09:06:33;;;;;;;12.25;2.88;;;22.40;80.00;;;;;;4993431;28;20022;-69
2022/06/29 09:08:58;;;;;;;6.72;2.45;;;22.70;78.50;;;;;;4994433;28;20121;-69
2022/06/29 09:11:31;;;;;;;4.47;2.50;;;22.50;78.00;;;;;;4994321;28;20026;-69
2022/06/29 09:14:16;;;;;;;8.75;3.03;;;22.50;78.50;;;;;;4994291;28;20601;-69
2022/06/29 09:16:50;;;;;;;;;;;22.30;76.00;;;;;;4994891;28;20027;-69
2022/06/29 09:19:16;;;;;;;7.90;2.40;;;22.20;76.50;;;;;;4994361;28;19912;-69
2022/06/29 09:21:54;;;;;;;8.38;2.70;;;22.20;79.30;;;;;;4993224;28;20023;-69
2022/06/29 09:24:30;;;;;;;6.22;2.80;;;22.30;77.60;;;;;;4993089;28;20486;-69
2022/06/29 09:26:58;;;;;;;4.38;2.55;;;22.20;78.40;;;;;;4993919;28;20164;-69
2022/06/29 09:29:28;;;;;;;3.50;2.28;;;22.60;81.00;;;;;;4994265;28;20034;-69
2022/06/29 09:32:05;;;;;;;5.85;2.53;;;22.90;77.80;;;;;;4992900;28;20054;-69
2022/06/29 09:34:32;;;;;;;8.05;2.65;;;22.40;74.80;;;;;;4994046;28;20059;-69
2022/06/29 09:36:58;;;;;;;6.95;2.75;;;22.30;77.10;;;;;;4992818;28;20026;-68
2022/06/29 09:39:33;;;;;;;5.57;2.55;;;22.20;78.40;;;;;;4993951;28;20073;-69
2022/06/29 09:41:59;;;;;;;6.78;2.58;;;22.60;76.40;;;;;;4993915;28;20501;-69
2022/06/29 09:44:24;;;;;;;4.65;2.20;;;22.60;77.60;;;;;;4994008;28;20034;-69
2022/06/29 09:46:57;;;;;;;7.75;2.88;;;22.70;76.10;;;;;;4993927;28;20026;-69
2022/06/29 09:49:27;;;;;;;3.85;2.45;;;22.70;75.50;;;;;;4992582;28;20030;-69
2022/06/29 09:51:57;;;;;;;6.00;2.60;;;23.00;74.30;;;;;;4992501;28;20483;-69
2022/06/29 09:54:35;;;;;;;9.80;2.45;;;23.00;71.70;;;;;;4998297;28;20128;-69
2022/06/29 09:57:01;;;;;;;5.88;2.30;;;23.20;74.90;;;;;;4997043;28;20483;-69
2022/06/29 10:02:34;;;;;;;7.20;2.85;;;23.80;69.20;;;;;;5013257;28;20522;-70
2022/06/29 10:05:01;;;;;;;;;;;24.30;68.20;;;;;;5013601;28;20025;-70
2022/06/29 10:07:28;;;;;;;6.65;2.13;;;25.20;64.40;;;;;;5013209;28;20358;-70
2022/06/29 10:09:54;;;;;;;9.02;2.42;;;25.50;60.50;;;;;;5013147;28;20076;-70
2022/06/29 10:15:43;;;;;;;10.43;3.17;;;25.20;61.20;;;;;;4998478;28;20029;-70
2022/06/29 10:18:17;;;;;;;4.00;2.97;;;24.90;62.60;;;;;;5013001;28;20049;-71
2022/06/29 10:20:46;;;;;;;5.45;2.30;;;25.20;61.40;;;;;;5012976;28;20022;-71
2022/06/29 10:23:49;;;;;;;7.03;2.65;;;25.10;59.60;;;;;;4995591;28;20391;-71
2022/06/29 10:26:35;;;;;;;3.45;2.17;;;25.00;62.10;;;;;;5009771;28;20023;-71
2022/06/29 10:29:10;;;;;;;3.67;2.05;;;25.10;61.60;;;;;;4982839;28;20037;-71
2022/06/29 10:31:51;;;;;;;8.77;3.17;;;25.40;59.70;;;;;;4993288;28;20034;-71
2022/06/29 10:34:32;;;;;;;6.95;2.72;;;26.10;60.90;;;;;;4993152;28;20019;-70
2022/06/29 10:37:04;;;;;;;13.10;3.90;;;26.00;58.50;;;;;;4994078;28;20479;-71
2022/06/29 10:40:04;;;;;;;5.57;2.50;;;25.80;60.00;;;;;;4993195;28;20029;-71
2022/06/29 10:45:24;;;;;;;6.10;2.50;;;26.30;58.20;;;;;;4993238;28;20036;-72
2022/06/29 10:47:56;;;;;;;3.17;2.10;;;27.00;57.10;;;;;;4993214;28;20033;-71
2022/06/29 10:50:25;;;;;;;7.07;2.83;;;26.80;57.10;;;;;;4993096;28;20158;-71
2022/06/29 10:52:55;;;;;;;6.10;2.55;;;26.80;59.20;;;;;;4976414;28;20023;-72
2022/06/29 10:55:21;;;;;;;9.38;2.25;;;26.30;58.10;;;;;;4975531;28;20051;-71
2022/06/29 10:57:47;;;;;;;5.55;2.67;;;26.60;57.30;;;;;;4993229;28;20026;-71
2022/06/29 11:00:25;;;;;;;6.25;2.33;;;27.20;54.90;;;;;;4992953;28;20383;-71
2022/06/29 11:02:51;;;;;;;7.22;2.15;;;27.40;55.50;;;;;;4993175;28;20410;-71
2022/06/29 11:05:17;;;;;;;8.23;5.82;;;28.30;53.70;;;;;;4975809;28;20026;-71
2022/06/29 11:13:22;;;;;;;;;;;27.70;56.50;;;;;;4982398;28;20034;-72
2022/06/29 11:15:49;;;;;;;5.00;2.40;;;28.20;58.80;;;;;;4996746;28;19913;-72
2022/06/29 11:18:26;;;;;;;4.00;2.70;;;29.00;54.90;;;;;;4996540;28;20026;-72
2022/06/29 11:20:52;;;;;;;4.55;2.20;;;28.70;53.50;;;;;;4979467;28;20179;-72
2022/06/29 11:23:19;;;;;;;3.83;2.25;;;30.20;49.40;;;;;;4978998;28;20054;-73
2022/06/29 11:25:46;;;;;;;3.10;1.80;;;30.40;49.50;;;;;;4996574;28;20102;-72
2022/06/29 11:28:23;;;;;;;2.38;2.00;;;30.60;47.40;;;;;;4996341;28;20029;-74
2022/06/29 11:30:58;;;;;;;5.45;1.95;;;30.90;46.40;;;;;;4979254;28;20085;-73
2022/06/29 11:33:28;;;;;;;4.50;2.25;;;31.10;46.20;;;;;;4996358;28;20025;-73
2022/06/29 11:35:54;;;;;;;2.72;1.90;;;31.40;49.00;;;;;;4979444;28;20102;-73
2022/06/29 11:38:19;;;;;;;4.13;2.08;;;32.00;46.10;;;;;;4996087;28;20059;-74
2022/06/29 11:40:49;;;;;;;3.28;1.75;;;32.50;44.20;;;;;;4996200;28;20022;-71
2022/06/29 11:43:15;;;;;;;3.85;1.98;;;33.20;41.40;;;;;;4996092;28;20049;-72
2022/06/29 11:45:56;;;;;;;4.35;2.08;;;31.80;44.70;;;;;;4996130;28;20515;-76
2022/06/29 11:48:22;;;;;;;7.60;2.58;;;31.90;44.90;;;;;;4995983;28;20456;-74
2022/06/29 11:50:58;;;;;;;4.75;2.33;;;31.50;46.60;;;;;;4995921;28;20113;-72
2022/06/29 11:53:47;;;;;;;4.53;2.05;;;32.80;44.40;;;;;;4995995;28;20030;-76
2022/06/29 11:56:26;;;;;;;3.47;1.90;;;32.60;44.10;;;;;;4962444;28;20042;-72
2022/06/29 11:58:53;;;;;;;3.28;2.00;;;32.90;44.60;;;;;;4979040;28;20022;-76
2022/06/29 12:01:20;;;;;;;3.00;1.80;;;33.80;44.20;;;;;;4978562;28;20053;-77
2022/06/29 12:03:52;;;;;;;3.45;2.00;;;32.60;46.30;;;;;;4978454;28;20085;-74
2022/06/29 12:06:18;;;;;;;5.13;2.10;;;32.40;44.60;;;;;;4995671;28;20026;-77
2022/06/29 12:08:44;;;;;;;2.33;2.10;;;31.70;47.70;;;;;;4995795;28;20386;-76
2022/06/29 12:11:09;;;;;;;3.33;2.30;;;32.20;46.60;;;;;;4995506;28;20041;-73
2022/06/29 12:13:35;;;;;;;5.47;2.60;;;31.90;46.30;;;;;;4978487;28;20509;-76
2022/06/29 12:16:00;;;;;;;4.20;2.00;;;31.50;47.00;;;;;;4995540;28;20023;-76
2022/06/29 12:18:26;;;;;;;5.63;1.90;;;30.10;47.90;;;;;;4995706;28;20029;-79
2022/06/29 12:20:51;;;;;;;4.45;2.20;;;29.70;49.10;;;;;;4995050;28;20118;-74
2022/06/29 12:23:17;;;;;;;4.70;2.10;;;30.50;47.30;;;;;;4977755;28;20030;-77
2022/06/29 12:25:43;;;;;;;5.60;2.58;;;31.20;45.80;;;;;;4978218;28;20080;-74
2022/06/29 12:28:09;;;;;;;6.70;2.50;;;30.10;47.40;;;;;;4977842;28;20034;-73
2022/06/29 12:30:34;;;;;;;5.00;2.15;;;32.20;47.40;;;;;;4995203;28;20026;-71
2022/06/29 12:33:00;;;;;;;2.92;1.77;;;32.80;43.60;;;;;;4995289;28;20030;-76
2022/06/29 12:35:25;;;;;;;2.88;1.90;;;32.50;43.00;;;;;;4995071;28;20023;-71
2022/06/29 12:37:57;;;;;;;2.70;1.90;;;32.80;42.70;;;;;;4995267;28;20027;-75
2022/06/29 12:40:25;;;;;;;3.90;2.25;;;32.70;42.60;;;;;;4995014;28;20030;-76
2022/06/29 12:42:53;;;;;;;2.95;1.92;;;32.90;41.00;;;;;;4977717;28;20034;-82
2022/06/29 12:45:19;;;;;;;3.60;1.98;;;33.90;40.90;;;;;;4994876;28;20034;-82
2022/06/29 12:47:50;;;;;;;4.97;1.65;;;33.60;41.20;;;;;;4995494;28;20390;-77
2022/06/29 12:50:16;;;;;;;4.07;2.17;;;33.80;39.00;;;;;;4993291;28;20054;-77
2022/06/29 12:52:46;;;;;;;4.38;2.03;;;32.10;42.30;;;;;;4999983;28;20022;-78
2022/06/29 12:55:16;;;;;;;4.43;2.70;;;32.00;42.80;;;;;;4997459;28;20046;-75
2022/06/29 12:57:42;;;;;;;3.83;2.45;;;31.80;43.20;;;;;;4993410;28;20026;-79
2022/06/29 13:00:12;;;;;;;4.15;2.42;;;31.30;44.60;;;;;;4977014;28;20022;-84
2022/06/29 13:02:37;;;;;;;3.63;1.98;;;31.40;43.80;;;;;;4977176;28;20443;-73